Time;durP1;ratioP1;P1;durP2;ratioP2;P2;SDS_P1;SDS_P2;PMS_P1;PMS_P2;Temp;Humidity;BMP_temperature;BMP_pressure;BME280_temperature;BME280_humidity;BME280_pressure;Samples;Min_cycle;Max_cycle;Signal;HPM_P1;HPM_P2
2022/04/13 00:01:20;;;;;;;12.02;6.75;;;13.00;99.90;;;;;;4997069;28;20050;-73
2022/04/13 00:03:46;;;;;;;12.20;7.82;;;13.00;99.90;;;;;;4996957;28;20077;-73
2022/04/13 00:06:13;;;;;;;11.77;7.40;;;13.00;99.90;;;;;;4996323;28;20085;-73
2022/04/13 00:08:40;;;;;;;9.10;6.93;;;12.90;99.90;;;;;;4996169;28;20046;-73
2022/04/13 00:11:05;;;;;;;10.15;7.22;;;13.00;99.90;;;;;;4997115;28;20076;-73
2022/04/13 00:13:31;;;;;;;10.20;7.25;;;13.00;99.90;;;;;;4996844;28;20530;-73
2022/04/13 00:15:57;;;;;;;10.00;7.20;;;13.00;99.90;;;;;;4997817;28;20053;-73
2022/04/13 00:18:22;;;;;;;11.18;7.40;;;13.00;99.90;;;;;;4995501;28;20462;-73
2022/04/13 00:20:48;;;;;;;10.50;7.25;;;13.00;99.90;;;;;;4996608;28;20085;-73
2022/04/13 00:23:14;;;;;;;10.05;7.25;;;12.90;99.90;;;;;;4996350;28;20419;-73
2022/04/13 00:25:41;;;;;;;10.93;7.65;;;12.90;99.90;;;;;;4996328;28;20059;-73
2022/04/13 00:28:09;;;;;;;10.05;6.63;;;12.90;99.90;;;;;;4995059;28;20498;-73
2022/04/13 00:30:36;;;;;;;8.85;7.00;;;12.90;99.90;;;;;;4996119;28;20520;-73
2022/04/13 00:33:02;;;;;;;12.05;7.18;;;12.90;99.90;;;;;;4996426;28;20046;-73
2022/04/13 00:35:28;;;;;;;9.15;7.18;;;12.80;99.90;;;;;;4996607;28;20045;-73
2022/04/13 00:37:54;;;;;;;11.27;8.30;;;12.80;99.90;;;;;;4996364;28;20042;-73
2022/04/13 00:40:20;;;;;;;11.35;7.68;;;12.70;99.90;;;;;;4996353;28;20516;-73
2022/04/13 00:42:46;;;;;;;10.35;7.15;;;12.70;99.90;;;;;;4995988;28;20450;-74
2022/04/13 00:45:12;;;;;;;9.73;7.75;;;12.60;99.90;;;;;;4996216;28;20505;-73
2022/04/13 00:47:40;;;;;;;10.00;7.22;;;12.60;99.90;;;;;;4996041;28;20038;-73
2022/04/13 00:50:08;;;;;;;9.40;6.93;;;12.50;99.90;;;;;;4995743;28;20494;-73
2022/04/13 00:52:36;;;;;;;9.68;6.93;;;12.50;99.90;;;;;;4996602;28;20082;-74
2022/04/13 00:55:06;;;;;;;10.20;7.45;;;12.40;99.90;;;;;;4996542;28;20057;-73
2022/04/13 00:57:34;;;;;;;11.40;7.78;;;12.40;99.90;;;;;;4996082;28;20226;-74
2022/04/13 01:00:03;;;;;;;9.65;7.30;;;12.40;99.90;;;;;;4994789;28;20052;-74
2022/04/13 01:02:30;;;;;;;10.75;7.35;;;12.40;99.90;;;;;;4995397;28;20054;-73
2022/04/13 01:04:59;;;;;;;9.82;7.68;;;12.30;99.90;;;;;;4994917;28;20482;-73
2022/04/13 01:07:25;;;;;;;9.55;6.75;;;12.20;99.90;;;;;;4995655;28;20101;-74
2022/04/13 01:09:52;;;;;;;8.40;6.88;;;12.30;99.90;;;;;;4995781;28;20042;-74
2022/04/13 01:12:18;;;;;;;10.52;7.45;;;12.20;99.90;;;;;;4995712;28;20046;-73
2022/04/13 01:14:43;;;;;;;8.88;6.75;;;12.20;99.90;;;;;;4995682;28;20058;-73
2022/04/13 01:17:09;;;;;;;8.43;6.00;;;12.20;99.90;;;;;;4995394;28;20057;-74
2022/04/13 01:19:35;;;;;;;9.05;6.25;;;12.10;99.90;;;;;;4995548;28;20086;-73
2022/04/13 01:22:20;;;;;;;8.38;6.28;;;12.10;99.90;;;;;;4995166;28;20090;-73
2022/04/13 01:24:47;;;;;;;9.05;6.68;;;12.10;99.90;;;;;;4995408;28;20053;-73
2022/04/13 01:27:17;;;;;;;9.70;6.35;;;12.10;99.90;;;;;;4995893;28;20140;-73
2022/04/13 01:29:44;;;;;;;10.20;6.40;;;12.00;99.90;;;;;;4995426;28;20061;-73
2022/04/13 01:32:11;;;;;;;8.20;6.05;;;12.00;99.90;;;;;;4978205;28;20057;-73
2022/04/13 01:34:37;;;;;;;7.90;5.88;;;12.00;99.90;;;;;;4978221;28;20062;-73
2022/04/13 01:37:04;;;;;;;8.20;6.15;;;12.00;99.90;;;;;;4993205;28;20390;-73
2022/04/13 01:39:29;;;;;;;8.25;6.80;;;12.00;99.90;;;;;;4996029;28;20112;-73
2022/04/13 01:41:55;;;;;;;7.47;6.07;;;12.00;99.90;;;;;;4978021;28;20480;-73
2022/04/13 01:44:21;;;;;;;7.80;6.15;;;12.00;99.90;;;;;;4995154;28;20129;-74
2022/04/13 01:46:47;;;;;;;10.13;6.82;;;12.00;99.90;;;;;;4994963;28;20049;-73
2022/04/13 01:49:13;;;;;;;10.23;6.35;;;11.90;99.90;;;;;;4994739;28;20548;-74
2022/04/13 01:51:39;;;;;;;7.57;5.80;;;11.90;99.90;;;;;;4994455;28;20050;-73
2022/04/13 01:54:04;;;;;;;8.30;6.45;;;11.90;99.90;;;;;;4994803;28;20139;-74
2022/04/13 01:56:30;;;;;;;10.20;6.20;;;11.90;99.90;;;;;;4993412;28;20081;-74
2022/04/13 01:58:56;;;;;;;9.15;6.20;;;11.90;99.90;;;;;;4995718;28;20042;-73
2022/04/13 02:01:21;;;;;;;7.70;5.82;;;11.90;99.90;;;;;;4993879;28;20054;-73
2022/04/13 02:03:49;;;;;;;8.88;6.10;;;11.90;99.90;;;;;;4994699;28;20042;-74
2022/04/13 02:06:14;;;;;;;6.78;5.45;;;11.90;99.90;;;;;;4994697;28;20116;-74
2022/04/13 02:08:40;;;;;;;7.57;5.78;;;11.90;99.90;;;;;;4977228;28;20046;-73
2022/04/13 02:11:06;;;;;;;7.45;5.90;;;12.00;99.90;;;;;;4994381;28;20474;-74
2022/04/13 02:13:31;;;;;;;6.53;5.03;;;12.00;99.90;;;;;;4993703;28;20165;-73
2022/04/13 02:15:57;;;;;;;7.15;5.78;;;12.00;99.90;;;;;;4994601;28;20047;-74
2022/04/13 02:18:23;;;;;;;8.60;6.00;;;12.00;99.90;;;;;;4994634;28;20049;-73
2022/04/13 02:20:48;;;;;;;9.65;6.35;;;12.00;99.90;;;;;;4994697;28;20050;-73
2022/04/13 02:23:14;;;;;;;8.73;6.15;;;12.00;99.90;;;;;;4994158;28;20050;-73
2022/04/13 02:25:40;;;;;;;6.65;5.47;;;12.00;99.90;;;;;;4992876;28;20482;-73
2022/04/13 02:28:06;;;;;;;8.07;6.35;;;12.00;99.90;;;;;;4993542;28;20045;-73
2022/04/13 02:30:32;;;;;;;8.25;6.63;;;12.00;99.90;;;;;;4993954;28;20557;-73
2022/04/13 02:32:59;;;;;;;8.50;5.70;;;11.90;99.90;;;;;;4994312;28;20089;-73
2022/04/13 02:35:24;;;;;;;6.53;5.70;;;11.90;99.90;;;;;;4960934;28;20047;-73
2022/04/13 02:37:50;;;;;;;6.95;5.90;;;11.90;99.90;;;;;;4994215;28;20042;-73
2022/04/13 02:40:16;;;;;;;7.80;6.10;;;11.90;99.90;;;;;;4994284;28;20042;-73
2022/04/13 02:42:42;;;;;;;9.02;6.47;;;11.90;99.90;;;;;;4994250;28;20058;-73
2022/04/13 02:45:08;;;;;;;6.90;5.93;;;11.90;99.90;;;;;;4976763;28;20054;-72
2022/04/13 02:47:35;;;;;;;7.75;6.38;;;11.80;99.90;;;;;;4992591;28;20047;-73
2022/04/13 02:50:02;;;;;;;8.35;6.20;;;11.80;99.90;;;;;;4994241;28;20371;-73
2022/04/13 02:52:28;;;;;;;8.52;6.15;;;11.80;99.90;;;;;;4994066;28;20042;-72
2022/04/13 02:54:55;;;;;;;8.20;6.78;;;11.80;99.90;;;;;;4994072;28;20054;-72
2022/04/13 02:57:21;;;;;;;8.45;6.78;;;11.70;99.90;;;;;;4993764;28;20561;-71
2022/04/13 02:59:48;;;;;;;7.82;6.32;;;11.70;99.90;;;;;;4993870;28;20081;-72
2022/04/13 03:02:18;;;;;;;9.10;6.80;;;11.70;99.90;;;;;;4993087;28;20050;-73
2022/04/13 03:04:48;;;;;;;9.07;6.22;;;11.60;99.90;;;;;;4992839;28;20042;-73
2022/04/13 03:07:16;;;;;;;8.30;6.30;;;11.60;99.90;;;;;;4993075;28;20047;-73
2022/04/13 03:09:42;;;;;;;9.85;6.85;;;11.50;99.90;;;;;;4993960;28;20064;-73
2022/04/13 03:12:09;;;;;;;8.52;6.60;;;11.50;99.90;;;;;;4994012;28;20054;-72
2022/04/13 03:14:36;;;;;;;8.80;6.53;;;11.50;99.90;;;;;;4994168;28;20549;-73
2022/04/13 03:17:02;;;;;;;8.25;6.35;;;11.50;99.90;;;;;;4992939;28;20058;-73
2022/04/13 03:19:27;;;;;;;8.13;6.57;;;11.40;99.90;;;;;;4992718;28;20058;-73
2022/04/13 03:21:54;;;;;;;9.32;7.35;;;11.40;99.90;;;;;;4992687;28;20042;-73
2022/04/13 03:24:24;;;;;;;10.88;6.93;;;11.40;99.90;;;;;;4993903;28;20403;-72
2022/04/13 03:26:51;;;;;;;8.00;6.55;;;11.30;99.90;;;;;;4993703;28;20494;-72
2022/04/13 03:29:17;;;;;;;10.57;7.65;;;11.30;99.90;;;;;;4993816;28;20061;-73
2022/04/13 03:31:43;;;;;;;7.53;6.18;;;11.30;99.90;;;;;;4993847;28;20129;-73
2022/04/13 03:34:09;;;;;;;8.20;6.57;;;11.20;99.90;;;;;;4993629;28;20089;-73
2022/04/13 03:36:39;;;;;;;9.93;7.07;;;11.20;99.90;;;;;;4992797;28;20526;-73
2022/04/13 03:39:06;;;;;;;10.43;6.75;;;11.10;99.90;;;;;;4994022;28;20367;-72
2022/04/13 03:41:34;;;;;;;8.27;7.07;;;11.10;99.90;;;;;;4994398;28;20042;-73
2022/04/13 03:43:59;;;;;;;8.60;7.13;;;11.10;99.90;;;;;;4992743;28;20069;-73
2022/04/13 03:46:25;;;;;;;10.18;7.75;;;11.00;99.90;;;;;;4994545;28;20054;-73
2022/04/13 03:48:51;;;;;;;8.50;7.20;;;11.00;99.90;;;;;;4994091;28;20038;-73
2022/04/13 03:51:16;;;;;;;10.07;7.45;;;11.00;99.90;;;;;;4993575;28;20119;-73
2022/04/13 03:53:42;;;;;;;8.90;7.40;;;11.00;99.90;;;;;;4992610;28;20054;-73
2022/04/13 03:56:08;;;;;;;9.15;7.30;;;10.90;99.90;;;;;;4992572;28;20043;-73
2022/04/13 03:58:33;;;;;;;9.68;7.20;;;10.90;99.90;;;;;;4992390;28;20046;-73
2022/04/13 04:00:59;;;;;;;10.25;7.63;;;10.90;99.90;;;;;;4994900;28;20099;-73
2022/04/13 04:03:25;;;;;;;10.85;7.95;;;10.90;99.90;;;;;;4997028;28;20050;-73
2022/04/13 04:05:50;;;;;;;9.73;7.53;;;10.90;99.90;;;;;;4997023;28;20069;-73
2022/04/13 04:08:16;;;;;;;10.55;7.85;;;10.90;99.90;;;;;;4995953;28;20058;-72
2022/04/13 04:10:42;;;;;;;11.98;7.32;;;10.90;99.90;;;;;;4995696;28;20486;-73
2022/04/13 04:13:07;;;;;;;11.27;7.47;;;10.90;99.90;;;;;;4996699;28;20046;-73
2022/04/13 04:15:33;;;;;;;8.93;7.47;;;10.90;99.90;;;;;;4996509;28;20038;-73
2022/04/13 04:17:59;;;;;;;9.50;7.43;;;10.90;99.90;;;;;;4997314;28;20043;-73
2022/04/13 04:20:24;;;;;;;10.75;7.47;;;10.90;99.90;;;;;;4996234;28;20108;-73
2022/04/13 04:22:50;;;;;;;8.85;6.95;;;10.90;99.90;;;;;;4995182;28;20449;-73
2022/04/13 04:25:16;;;;;;;10.45;7.70;;;11.00;99.90;;;;;;4996140;28;20061;-72
2022/04/13 04:27:42;;;;;;;11.40;8.23;;;11.00;99.90;;;;;;4997077;28;20488;-73
2022/04/13 04:30:08;;;;;;;11.93;8.23;;;11.00;99.90;;;;;;4995327;28;20097;-73
2022/04/13 04:32:34;;;;;;;11.45;7.28;;;11.10;99.90;;;;;;4996470;28;20039;-73
2022/04/13 04:35:00;;;;;;;11.43;8.05;;;11.10;99.90;;;;;;4980034;28;20104;-72
2022/04/13 04:37:25;;;;;;;11.20;7.80;;;11.20;99.90;;;;;;4996654;28;20081;-73
2022/04/13 04:39:51;;;;;;;10.50;7.47;;;11.20;99.90;;;;;;4996366;28;20121;-72
2022/04/13 04:42:17;;;;;;;9.43;7.45;;;11.20;99.90;;;;;;4996594;28;20046;-73
2022/04/13 04:44:43;;;;;;;11.25;8.63;;;11.30;99.90;;;;;;4996257;28;20128;-73
2022/04/13 04:47:09;;;;;;;11.02;7.28;;;11.30;99.90;;;;;;4996207;28;20502;-72
2022/04/13 04:49:34;;;;;;;12.70;8.48;;;11.30;99.90;;;;;;4996193;28;20042;-73
2022/04/13 04:52:00;;;;;;;10.95;8.25;;;11.40;99.90;;;;;;4978824;28;20050;-74
2022/04/13 04:54:26;;;;;;;12.80;8.02;;;11.40;99.90;;;;;;4996049;28;20054;-73
2022/04/13 04:56:51;;;;;;;9.13;7.53;;;11.40;99.90;;;;;;4995925;28;20054;-73
2022/04/13 04:59:17;;;;;;;13.25;8.50;;;11.40;99.90;;;;;;4996044;28;20042;-74
2022/04/13 05:01:43;;;;;;;11.75;8.35;;;11.50;99.90;;;;;;4994787;28;20054;-72
2022/04/13 05:04:09;;;;;;;11.13;8.25;;;12.10;99.90;;;;;;4995788;28;20082;-73
2022/04/13 05:06:34;;;;;;;9.93;7.88;;;11.50;99.90;;;;;;4994733;28;20043;-72
2022/04/13 05:09:00;;;;;;;11.32;8.65;;;11.50;99.90;;;;;;4995142;28;20042;-72
2022/04/13 05:11:26;;;;;;;11.85;9.13;;;11.60;99.90;;;;;;4994541;28;20049;-72
2022/04/13 05:13:52;;;;;;;13.18;8.77;;;11.60;99.90;;;;;;4994781;28;20058;-73
2022/04/13 05:16:19;;;;;;;12.65;9.05;;;11.60;99.90;;;;;;4994925;28;20049;-73
2022/04/13 05:18:45;;;;;;;14.00;9.15;;;11.60;99.90;;;;;;4996415;28;20124;-73
2022/04/13 05:21:11;;;;;;;11.55;8.93;;;11.60;99.90;;;;;;4994271;28;20042;-74
2022/04/13 05:23:37;;;;;;;12.60;9.30;;;11.60;99.90;;;;;;4994400;28;20069;-73
2022/04/13 05:26:04;;;;;;;13.35;9.45;;;11.60;99.90;;;;;;4995277;28;20494;-73
2022/04/13 05:28:30;;;;;;;13.25;9.38;;;11.60;99.90;;;;;;4996193;28;20039;-73
2022/04/13 05:30:57;;;;;;;14.05;9.80;;;11.60;99.90;;;;;;4995408;28;20052;-73
2022/04/13 05:33:22;;;;;;;13.02;9.15;;;11.70;99.90;;;;;;4994122;28;20042;-72
2022/04/13 05:35:49;;;;;;;14.57;9.07;;;11.70;99.90;;;;;;4978249;28;20046;-72
2022/04/13 05:38:15;;;;;;;10.77;8.75;;;11.70;99.90;;;;;;4994051;28;20084;-72
2022/04/13 05:40:41;;;;;;;12.80;9.52;;;11.70;99.90;;;;;;4994002;28;20076;-73
2022/04/13 05:43:07;;;;;;;18.00;10.60;;;11.80;99.90;;;;;;4995177;28;20108;-73
2022/04/13 05:45:33;;;;;;;15.45;9.52;;;11.80;99.90;;;;;;4995132;28;20431;-73
2022/04/13 05:47:59;;;;;;;15.15;9.57;;;11.90;99.90;;;;;;4994695;28;20085;-73
2022/04/13 05:50:25;;;;;;;13.23;10.07;;;11.90;99.90;;;;;;4994939;28;20053;-73
2022/04/13 05:52:51;;;;;;;13.35;9.52;;;12.00;99.90;;;;;;4994872;28;20489;-72
2022/04/13 05:55:16;;;;;;;13.38;9.98;;;11.90;99.90;;;;;;4993801;28;20042;-72
2022/04/13 05:57:42;;;;;;;15.52;9.07;;;12.00;99.90;;;;;;4993676;28;20046;-73
2022/04/13 06:00:11;;;;;;;12.57;9.15;;;12.00;99.90;;;;;;4995573;28;20054;-73
2022/04/13 06:02:37;;;;;;;12.93;9.38;;;12.00;99.90;;;;;;4994807;28;20617;-72
2022/04/13 06:05:04;;;;;;;14.13;7.85;;;12.10;99.90;;;;;;4993855;28;20050;-72
2022/04/13 06:07:30;;;;;;;13.65;9.55;;;12.10;99.90;;;;;;4993694;28;20042;-72
2022/04/13 06:10:01;;;;;;;15.27;9.05;;;12.20;99.90;;;;;;4977403;28;20042;-73
2022/04/13 06:12:27;;;;;;;13.88;9.77;;;12.10;99.90;;;;;;4994598;28;20050;-73
2022/04/13 06:15:09;;;;;;;12.73;8.95;;;12.20;99.90;;;;;;4994291;28;20561;-73
2022/04/13 06:17:36;;;;;;;14.20;9.10;;;12.20;99.90;;;;;;4994570;28;20057;-73
2022/04/13 06:20:03;;;;;;;13.05;9.25;;;12.20;99.90;;;;;;4994550;28;20337;-73
2022/04/13 06:22:33;;;;;;;13.93;9.00;;;12.20;99.90;;;;;;4993892;28;20133;-73
2022/04/13 06:25:01;;;;;;;12.20;8.88;;;12.20;99.90;;;;;;4994129;28;20046;-72
2022/04/13 06:27:27;;;;;;;12.30;8.90;;;12.20;99.90;;;;;;4994432;28;20137;-73
2022/04/13 06:29:53;;;;;;;12.30;9.23;;;12.30;99.90;;;;;;4993475;28;20086;-73
2022/04/13 06:32:19;;;;;;;14.25;9.18;;;12.20;99.90;;;;;;4993658;28;20076;-72
2022/04/13 06:34:45;;;;;;;12.98;9.93;;;12.20;99.90;;;;;;4994264;28;20050;-73
2022/04/13 06:37:10;;;;;;;13.68;10.02;;;12.20;99.90;;;;;;4994236;28;20406;-73
2022/04/13 06:39:36;;;;;;;14.85;10.13;;;12.20;99.90;;;;;;4994822;28;20050;-73
2022/04/13 06:42:02;;;;;;;15.20;11.05;;;12.20;99.90;;;;;;4994058;28;20489;-73
2022/04/13 06:44:28;;;;;;;14.75;10.25;;;12.20;99.90;;;;;;4993906;28;20498;-73
2022/04/13 06:46:54;;;;;;;11.88;10.10;;;12.20;99.90;;;;;;4994437;28;20078;-72
2022/04/13 06:49:19;;;;;;;14.90;10.10;;;12.30;99.90;;;;;;4994163;28;20497;-73
2022/04/13 06:51:45;;;;;;;17.95;11.02;;;12.30;99.90;;;;;;4994049;28;20082;-72
2022/04/13 06:54:11;;;;;;;15.05;11.00;;;12.30;99.90;;;;;;4994147;28;20046;-73
2022/04/13 06:56:39;;;;;;;17.42;11.13;;;12.40;99.90;;;;;;4994046;28;20054;-72
2022/04/13 06:59:05;;;;;;;15.82;11.18;;;12.40;99.90;;;;;;4994808;28;20451;-72
2022/04/13 07:01:31;;;;;;;14.38;10.38;;;12.50;99.90;;;;;;4994145;28;20050;-72
2022/04/13 07:03:57;;;;;;;16.48;11.43;;;12.60;99.90;;;;;;4992943;28;20399;-73
2022/04/13 07:06:23;;;;;;;14.57;10.63;;;12.80;99.90;;;;;;4994447;28;20053;-73
2022/04/13 07:08:48;;;;;;;13.80;9.65;;;12.80;99.90;;;;;;4994060;28;20454;-73
2022/04/13 07:11:14;;;;;;;16.52;10.88;;;12.90;99.90;;;;;;4994689;28;20082;-73
2022/04/13 07:13:40;;;;;;;17.80;10.45;;;13.00;99.90;;;;;;4993162;28;20390;-73
2022/04/13 07:16:05;;;;;;;15.27;10.35;;;13.00;99.90;;;;;;4994376;28;20050;-74
2022/04/13 07:18:31;;;;;;;14.20;10.50;;;13.10;99.90;;;;;;4994079;28;20042;-74
2022/04/13 07:20:57;;;;;;;15.43;8.88;;;13.20;99.90;;;;;;4993011;28;20057;-72
2022/04/13 07:23:22;;;;;;;17.10;10.27;;;13.20;99.90;;;;;;4993068;28;20069;-71
2022/04/13 07:25:48;;;;;;;12.23;8.95;;;13.30;99.90;;;;;;4994314;28;20054;-73
2022/04/13 07:28:14;;;;;;;14.48;9.23;;;13.40;99.90;;;;;;4993978;28;20469;-74
2022/04/13 07:30:40;;;;;;;14.38;10.20;;;13.40;99.90;;;;;;4993304;28;20385;-72
2022/04/13 07:33:06;;;;;;;14.55;10.13;;;13.50;99.90;;;;;;4994008;28;20448;-73
2022/04/13 07:35:32;;;;;;;13.30;9.52;;;13.50;99.90;;;;;;4995630;28;20561;-71
2022/04/13 07:37:57;;;;;;;14.38;9.27;;;13.50;99.90;;;;;;4997693;28;20046;-74
2022/04/13 07:40:24;;;;;;;17.55;9.68;;;13.60;99.90;;;;;;4997959;28;20129;-74
2022/04/13 07:42:49;;;;;;;12.60;9.05;;;13.60;99.90;;;;;;4997260;28;20530;-71
2022/04/13 07:45:15;;;;;;;14.10;9.23;;;13.70;99.90;;;;;;4997558;28;20046;-73
2022/04/13 07:47:41;;;;;;;15.95;9.70;;;13.70;99.90;;;;;;4997426;28;20050;-72
2022/04/13 07:50:12;;;;;;;17.02;10.45;;;13.70;99.90;;;;;;4997455;28;20482;-71
2022/04/13 07:52:40;;;;;;;14.77;9.13;;;13.80;99.90;;;;;;4997931;28;20133;-71
2022/04/13 07:55:09;;;;;;;14.27;9.25;;;13.90;99.90;;;;;;4997292;28;20049;-71
2022/04/13 07:57:38;;;;;;;14.75;9.77;;;13.90;99.90;;;;;;4997571;28;20371;-71
2022/04/13 08:00:06;;;;;;;14.10;10.10;;;13.90;99.90;;;;;;4980316;28;20076;-71
2022/04/13 08:02:34;;;;;;;15.93;9.93;;;14.00;99.90;;;;;;4997211;28;20064;-71
2022/04/13 08:05:00;;;;;;;13.30;10.20;;;14.00;99.90;;;;;;4997413;28;20117;-72
2022/04/13 08:07:26;;;;;;;16.27;10.32;;;14.10;99.90;;;;;;4996727;28;20446;-71
2022/04/13 08:09:52;;;;;;;12.75;9.40;;;14.10;99.90;;;;;;4997092;28;20053;-71
2022/04/13 08:12:18;;;;;;;13.85;8.68;;;14.20;99.90;;;;;;4996761;28;20046;-70
2022/04/13 08:14:46;;;;;;;13.57;8.48;;;14.30;99.90;;;;;;4995722;28;20042;-71
2022/04/13 08:17:15;;;;;;;11.77;8.30;;;14.50;99.90;;;;;;4996121;28;20078;-72
2022/04/13 08:19:43;;;;;;;15.00;7.80;;;14.50;99.90;;;;;;4996086;28;20486;-73
2022/04/13 08:22:09;;;;;;;10.98;6.90;;;14.60;99.90;;;;;;4994605;28;20088;-69
2022/04/13 08:24:34;;;;;;;11.38;7.18;;;14.70;99.90;;;;;;4994871;28;20054;-71
2022/04/13 08:27:00;;;;;;;12.80;7.35;;;14.80;99.90;;;;;;4996048;28;20060;-71
2022/04/13 08:29:26;;;;;;;9.35;7.03;;;14.80;99.90;;;;;;4978932;28;20046;-72
2022/04/13 08:31:52;;;;;;;10.35;6.60;;;14.90;99.90;;;;;;4978545;28;20055;-73
2022/04/13 08:34:17;;;;;;;9.63;7.00;;;14.90;99.90;;;;;;4995760;28;20100;-72
2022/04/13 08:36:43;;;;;;;10.07;6.80;;;15.00;99.90;;;;;;4995697;28;20398;-72
2022/04/13 08:39:13;;;;;;;14.30;7.63;;;15.00;99.90;;;;;;4995837;28;20042;-71
2022/04/13 08:41:48;;;;;;;11.88;8.15;;;15.10;99.90;;;;;;4996025;28;20039;-71
2022/04/13 08:44:33;;;;;;;12.25;7.47;;;15.10;99.90;;;;;;4995227;28;20153;-72
2022/04/13 08:47:06;;;;;;;9.02;5.88;;;15.10;99.90;;;;;;4995353;28;20139;-72
2022/04/13 08:49:39;;;;;;;11.90;7.10;;;15.20;99.90;;;;;;4995385;28;20057;-71
2022/04/13 08:52:05;;;;;;;;;;;15.20;99.90;;;;;;4996772;28;20101;-71
2022/04/13 08:54:36;;;;;;;9.20;6.80;;;15.20;99.90;;;;;;4995058;28;20400;-71
2022/04/13 08:57:06;;;;;;;10.23;6.65;;;15.20;99.90;;;;;;4996067;28;20058;-71
2022/04/13 09:00:08;;;;;;;9.98;6.50;;;15.20;99.90;;;;;;4995392;28;20042;-68
2022/04/13 09:03:04;;;;;;;10.43;6.22;;;15.20;99.90;;;;;;4995349;28;20049;-71
2022/04/13 09:05:33;;;;;;;11.20;6.82;;;15.10;99.90;;;;;;4994817;28;20514;-71
2022/04/13 09:08:09;;;;;;;9.85;6.90;;;15.00;99.90;;;;;;4995895;28;20061;-70
2022/04/13 09:10:36;;;;;;;11.85;6.93;;;15.00;99.90;;;;;;4995321;28;20055;-71
2022/04/13 09:13:02;;;;;;;10.05;7.35;;;15.00;99.90;;;;;;4994816;28;20046;-71
2022/04/13 09:15:28;;;;;;;10.70;6.50;;;15.00;99.90;;;;;;4995348;28;20050;-71
2022/04/13 09:17:55;;;;;;;11.27;7.25;;;15.10;99.90;;;;;;4994895;28;20039;-68
2022/04/13 09:20:21;;;;;;;10.60;7.47;;;15.10;99.90;;;;;;4994338;28;20052;-72
2022/04/13 09:22:49;;;;;;;12.82;7.80;;;15.20;99.90;;;;;;4993596;28;20390;-70
2022/04/13 09:25:17;;;;;;;12.07;8.02;;;15.30;99.90;;;;;;4994106;28;20054;-72
2022/04/13 09:27:44;;;;;;;10.80;8.13;;;15.30;99.90;;;;;;4994493;28;20050;-71
2022/04/13 09:30:10;;;;;;;13.13;7.60;;;15.30;99.90;;;;;;4993836;28;20497;-70
2022/04/13 09:32:36;;;;;;;10.27;7.47;;;15.40;99.90;;;;;;4994956;28;20058;-70
2022/04/13 09:35:03;;;;;;;11.20;7.90;;;15.50;99.90;;;;;;4994883;28;20097;-72
2022/04/13 09:37:30;;;;;;;11.90;7.30;;;15.50;99.90;;;;;;4995201;28;20088;-72
2022/04/13 09:39:58;;;;;;;11.88;7.80;;;15.60;99.90;;;;;;4994149;28;20050;-71
2022/04/13 09:42:26;;;;;;;10.80;6.97;;;15.70;99.90;;;;;;4992937;28;20548;-70
2022/04/13 09:44:56;;;;;;;8.65;6.25;;;15.70;99.90;;;;;;4994465;28;20117;-76
2022/04/13 09:47:23;;;;;;;12.32;7.20;;;15.70;99.90;;;;;;4994542;28;20046;-71
2022/04/13 09:49:53;;;;;;;10.68;7.13;;;15.70;99.90;;;;;;4994352;28;20057;-71
2022/04/13 09:52:37;;;;;;;11.35;6.70;;;15.80;99.90;;;;;;4993927;28;20056;-71
2022/04/13 09:55:10;;;;;;;10.82;5.88;;;15.80;99.90;;;;;;4993619;28;20054;-71
2022/04/13 09:57:35;;;;;;;10.38;6.40;;;15.80;99.90;;;;;;4994280;28;20045;-71
2022/04/13 10:00:05;;;;;;;8.32;5.90;;;15.90;99.90;;;;;;4994600;28;20043;-71
2022/04/13 10:02:38;;;;;;;9.35;6.30;;;15.90;99.90;;;;;;4993688;28;20046;-71
2022/04/13 10:05:05;;;;;;;;;;;16.00;99.90;;;;;;4994927;28;20046;-71
2022/04/13 10:07:31;;;;;;;6.93;5.10;;;16.00;99.90;;;;;;4993420;28;20280;-70
2022/04/13 10:09:57;;;;;;;6.30;4.22;;;16.00;99.90;;;;;;4993220;28;20367;-71
2022/04/13 10:12:23;;;;;;;5.47;3.60;;;16.10;99.90;;;;;;4993764;28;20545;-71
2022/04/13 10:14:50;;;;;;;10.02;3.80;;;16.10;99.90;;;;;;4992567;28;20153;-70
2022/04/13 10:17:16;;;;;;;5.95;4.40;;;16.20;99.90;;;;;;4993320;28;20532;-71
2022/04/13 10:19:50;;;;;;;8.02;4.70;;;16.20;99.90;;;;;;4993825;28;20133;-71
2022/04/13 10:22:16;;;;;;;8.57;4.00;;;16.30;99.90;;;;;;4993686;28;20057;-71
2022/04/13 10:24:43;;;;;;;4.63;3.63;;;16.30;99.90;;;;;;4994155;28;20054;-72
2022/04/13 10:27:17;;;;;;;5.00;3.15;;;16.40;99.90;;;;;;4994301;28;20134;-72
2022/04/13 10:29:48;;;;;;;5.45;3.28;;;16.40;99.90;;;;;;4993375;28;20096;-72
2022/04/13 10:32:16;;;;;;;6.78;2.63;;;16.50;99.90;;;;;;4994448;28;20050;-71
2022/04/13 10:34:52;;;;;;;4.28;2.72;;;16.60;99.90;;;;;;4994486;28;20282;-73
2022/04/13 10:37:20;;;;;;;7.13;2.97;;;16.70;99.90;;;;;;4994269;28;20104;-73
2022/04/13 10:39:47;;;;;;;6.78;3.17;;;16.70;99.90;;;;;;4994003;28;20053;-74
2022/04/13 10:42:15;;;;;;;5.30;3.03;;;16.80;99.90;;;;;;4994964;28;20410;-74
2022/04/13 10:44:45;;;;;;;6.20;3.00;;;16.80;99.90;;;;;;4994271;28;20125;-73
2022/04/13 10:47:16;;;;;;;5.63;2.80;;;16.90;99.90;;;;;;4992808;28;20050;-74
2022/04/13 10:49:57;;;;;;;4.25;2.35;;;16.90;99.90;;;;;;4994597;28;20108;-72
2022/04/13 10:52:57;;;;;;;8.40;3.55;;;17.00;99.90;;;;;;4994222;28;20098;-72
2022/04/13 10:55:24;;;;;;;5.57;3.28;;;17.00;99.90;;;;;;4983216;28;20576;-72
2022/04/13 10:57:53;;;;;;;7.40;2.75;;;17.10;99.90;;;;;;4994141;28;20049;-72
2022/04/13 11:00:20;;;;;;;6.72;2.88;;;17.10;99.90;;;;;;4993252;28;20148;-72
2022/04/13 11:03:04;;;;;;;5.20;2.63;;;17.20;99.90;;;;;;4994071;28;20054;-73
2022/04/13 11:05:31;;;;;;;5.47;2.38;;;17.20;99.90;;;;;;4994735;28;20069;-71
2022/04/13 11:08:25;;;;;;;6.80;2.88;;;17.30;99.90;;;;;;4994412;28;20503;-72
2022/04/13 11:10:51;;;;;;;3.15;2.45;;;17.40;99.90;;;;;;4997616;28;20050;-74
2022/04/13 11:13:19;;;;;;;6.65;2.65;;;17.40;99.90;;;;;;4997093;28;20038;-76
2022/04/13 11:15:47;;;;;;;4.13;3.00;;;17.50;99.90;;;;;;4998006;28;20077;-76
2022/04/13 11:18:17;;;;;;;5.20;2.35;;;17.50;99.90;;;;;;4998688;28;20084;-78
2022/04/13 11:21:01;;;;;;;3.85;2.58;;;17.60;99.90;;;;;;4997832;28;20125;-76
2022/04/13 11:23:55;;;;;;;4.63;2.42;;;17.60;99.90;;;;;;4996809;28;20046;-77
2022/04/13 11:26:36;;;;;;;5.50;3.13;;;17.70;99.90;;;;;;4996995;28;20517;-77
2022/04/13 11:29:18;;;;;;;7.13;2.25;;;17.80;99.90;;;;;;4997477;28;20376;-77
2022/04/13 11:32:02;;;;;;;4.30;1.88;;;17.90;99.90;;;;;;4997901;28;20402;-77
2022/04/13 11:34:28;;;;;;;4.13;2.17;;;17.90;99.90;;;;;;4998104;28;20125;-78
2022/04/13 11:37:01;;;;;;;3.45;1.92;;;17.90;99.90;;;;;;4997990;28;20081;-78
2022/04/13 11:39:45;;;;;;;4.07;2.25;;;17.90;99.90;;;;;;4998098;28;20081;-77
2022/04/13 11:42:15;;;;;;;3.50;2.33;;;18.00;99.90;;;;;;4998474;28;20050;-78
2022/04/13 11:44:48;;;;;;;4.13;2.00;;;18.00;99.90;;;;;;4997635;28;20085;-77
2022/04/13 11:47:15;;;;;;;5.07;2.50;;;18.00;99.90;;;;;;4997544;28;20045;-78
2022/04/13 11:49:55;;;;;;;4.72;2.42;;;18.10;99.90;;;;;;4996444;28;20112;-77
2022/04/13 11:52:51;;;;;;;5.50;2.35;;;18.10;99.90;;;;;;4996218;28;20042;-78
2022/04/13 11:55:31;;;;;;;3.75;2.20;;;18.20;99.90;;;;;;4997240;28;20133;-77
2022/04/13 11:58:08;;;;;;;4.47;1.92;;;18.20;99.90;;;;;;4997371;28;20043;-76
2022/04/13 12:00:56;;;;;;;4.80;2.10;;;18.20;99.90;;;;;;4997298;28;20140;-77
2022/04/13 12:03:34;;;;;;;3.08;2.10;;;18.30;99.90;;;;;;4998121;28;20177;-78
2022/04/13 12:06:10;;;;;;;4.65;1.40;;;18.30;99.90;;;;;;4997245;28;20050;-75
2022/04/13 12:08:47;;;;;;;3.60;1.20;;;18.30;99.90;;;;;;4996072;28;20523;-78
2022/04/13 12:11:18;;;;;;;3.60;1.17;;;18.30;99.90;;;;;;4997239;28;20057;-78
2022/04/13 12:13:58;;;;;;;2.70;1.40;;;18.30;99.90;;;;;;4997634;28;20100;-78
2022/04/13 12:16:38;;;;;;;4.95;2.00;;;18.20;99.90;;;;;;4995875;28;20046;-78
2022/04/13 12:19:05;;;;;;;5.05;1.77;;;18.20;99.90;;;;;;4997091;28;20046;-70
2022/04/13 12:21:33;;;;;;;3.13;1.40;;;18.20;99.90;;;;;;4996044;28;20042;-70
2022/04/13 12:24:11;;;;;;;2.28;1.27;;;18.10;99.90;;;;;;4996853;28;20050;-70
2022/04/13 12:26:41;;;;;;;2.38;0.93;;;18.00;99.90;;;;;;4996728;28;20069;-71
2022/04/13 12:29:20;;;;;;;3.33;0.70;;;18.00;99.90;;;;;;4996944;28;20077;-71
2022/04/13 12:31:53;;;;;;;4.00;1.02;;;17.90;99.90;;;;;;4996799;28;20054;-71
2022/04/13 12:34:26;;;;;;;2.25;0.50;;;17.90;99.90;;;;;;4996688;28;20050;-71
2022/04/13 12:37:02;;;;;;;0.50;0.40;;;17.90;99.90;;;;;;4995703;28;20056;-71
2022/04/13 12:39:35;;;;;;;4.32;0.82;;;17.90;99.90;;;;;;4997152;28;20050;-71
2022/04/13 12:42:03;;;;;;;2.17;0.80;;;17.90;99.90;;;;;;4996619;28;20046;-70
2022/04/13 12:44:29;;;;;;;1.90;0.93;;;17.90;99.90;;;;;;4996762;28;20046;-70
2022/04/13 12:47:11;;;;;;;2.25;1.13;;;17.90;99.90;;;;;;4996466;28;20065;-69